sensor_id;sensor_type;location;lat;lon;timestamp;pressure;altitude;pressure_sealevel;temperature;humidity
25944;BME280;13742;49.306;8.636;2023-03-11T00:00:17;99502.33;;;3.61;65.03
25944;BME280;13742;49.306;8.636;2023-03-11T00:01:11;99502.22;;;3.60;64.48
25944;BME280;13742;49.306;8.636;2023-03-11T00:02:11;99512.97;;;3.58;64.83
25944;BME280;13742;49.306;8.636;2023-03-11T00:03:12;99518.89;;;3.60;64.34
25944;BME280;13742;49.306;8.636;2023-03-11T00:04:12;99523.30;;;3.57;62.60
25944;BME280;13742;49.306;8.636;2023-03-11T00:05:12;99533.56;;;3.55;62.30
25944;BME280;13742;49.306;8.636;2023-03-11T00:06:11;99536.22;;;3.52;62.29
25944;BME280;13742;49.306;8.636;2023-03-11T00:07:11;99548.72;;;3.51;62.48
25944;BME280;13742;49.306;8.636;2023-03-11T00:08:12;99546.48;;;3.53;61.77
25944;BME280;13742;49.306;8.636;2023-03-11T00:09:11;99534.52;;;3.53;61.79
25944;BME280;13742;49.306;8.636;2023-03-11T00:10:15;99537.25;;;3.54;61.14
25944;BME280;13742;49.306;8.636;2023-03-11T00:11:11;99536.31;;;3.50;61.33
25944;BME280;13742;49.306;8.636;2023-03-11T00:12:11;99544.72;;;3.51;61.28
25944;BME280;13742;49.306;8.636;2023-03-11T00:13:12;99552.48;;;3.52;60.46
25944;BME280;13742;49.306;8.636;2023-03-11T00:14:11;99542.00;;;3.51;61.29
25944;BME280;13742;49.306;8.636;2023-03-11T00:15:12;99535.03;;;3.45;61.30
25944;BME280;13742;49.306;8.636;2023-03-11T00:16:11;99538.30;;;3.48;61.19
25944;BME280;13742;49.306;8.636;2023-03-11T00:17:11;99547.99;;;3.44;60.88
25944;BME280;13742;49.306;8.636;2023-03-11T00:18:11;99546.47;;;3.44;61.49
25944;BME280;13742;49.306;8.636;2023-03-11T00:19:11;99542.09;;;3.46;61.21
25944;BME280;13742;49.306;8.636;2023-03-11T00:21:15;99540.44;;;3.44;62.12
25944;BME280;13742;49.306;8.636;2023-03-11T00:22:11;99548.44;;;3.46;62.13
25944;BME280;13742;49.306;8.636;2023-03-11T00:23:12;99545.55;;;3.41;61.65
25944;BME280;13742;49.306;8.636;2023-03-11T00:24:11;99542.06;;;3.42;61.40
25944;BME280;13742;49.306;8.636;2023-03-11T00:25:12;99539.30;;;3.40;60.91
25944;BME280;13742;49.306;8.636;2023-03-11T00:26:11;99545.22;;;3.39;61.18
25944;BME280;13742;49.306;8.636;2023-03-11T00:27:11;99533.07;;;3.40;61.23
25944;BME280;13742;49.306;8.636;2023-03-11T00:28:12;99544.33;;;3.40;61.34
25944;BME280;13742;49.306;8.636;2023-03-11T00:29:11;99555.57;;;3.43;61.15
25944;BME280;13742;49.306;8.636;2023-03-11T00:30:11;99558.41;;;3.42;61.08
25944;BME280;13742;49.306;8.636;2023-03-11T00:31:11;99563.73;;;3.39;61.00
25944;BME280;13742;49.306;8.636;2023-03-11T00:32:11;99559.71;;;3.34;60.68
25944;BME280;13742;49.306;8.636;2023-03-11T00:33:12;99569.02;;;3.34;60.56
25944;BME280;13742;49.306;8.636;2023-03-11T00:34:11;99570.37;;;3.36;60.89
25944;BME280;13742;49.306;8.636;2023-03-11T00:35:12;99564.17;;;3.36;60.71
25944;BME280;13742;49.306;8.636;2023-03-11T00:36:16;99564.77;;;3.34;60.63
25944;BME280;13742;49.306;8.636;2023-03-11T00:37:11;99571.34;;;3.31;60.54
25944;BME280;13742;49.306;8.636;2023-03-11T00:38:12;99567.45;;;3.33;60.79
25944;BME280;13742;49.306;8.636;2023-03-11T00:39:11;99566.28;;;3.31;60.61
25944;BME280;13742;49.306;8.636;2023-03-11T00:40:12;99576.13;;;3.33;61.10
25944;BME280;13742;49.306;8.636;2023-03-11T00:41:11;99577.83;;;3.32;60.66
25944;BME280;13742;49.306;8.636;2023-03-11T00:42:11;99572.19;;;3.31;60.76
25944;BME280;13742;49.306;8.636;2023-03-11T00:43:11;99570.11;;;3.31;60.91
25944;BME280;13742;49.306;8.636;2023-03-11T00:44:11;99572.56;;;3.31;61.00
25944;BME280;13742;49.306;8.636;2023-03-11T00:45:11;99580.30;;;3.30;61.15
25944;BME280;13742;49.306;8.636;2023-03-11T00:46:11;99574.20;;;3.25;60.95
25944;BME280;13742;49.306;8.636;2023-03-11T00:47:11;99569.38;;;3.27;61.23
25944;BME280;13742;49.306;8.636;2023-03-11T00:48:11;99582.30;;;3.25;61.98
25944;BME280;13742;49.306;8.636;2023-03-11T00:49:11;99581.05;;;3.22;61.65
25944;BME280;13742;49.306;8.636;2023-03-11T00:50:13;99567.80;;;3.28;61.72
25944;BME280;13742;49.306;8.636;2023-03-11T00:51:14;99563.77;;;3.24;61.45
25944;BME280;13742;49.306;8.636;2023-03-11T00:52:11;99573.20;;;3.20;61.63
25944;BME280;13742;49.306;8.636;2023-03-11T00:53:11;99582.48;;;3.18;62.46
25944;BME280;13742;49.306;8.636;2023-03-11T00:54:11;99572.48;;;3.20;61.99
25944;BME280;13742;49.306;8.636;2023-03-11T00:55:12;99557.72;;;3.18;61.78
25944;BME280;13742;49.306;8.636;2023-03-11T00:56:12;99559.66;;;3.19;61.78
25944;BME280;13742;49.306;8.636;2023-03-11T00:57:11;99575.50;;;3.14;61.58
25944;BME280;13742;49.306;8.636;2023-03-11T00:58:12;99582.92;;;3.12;61.80
25944;BME280;13742;49.306;8.636;2023-03-11T00:59:11;99573.98;;;3.11;62.12
25944;BME280;13742;49.306;8.636;2023-03-11T01:00:12;99562.36;;;3.10;62.27
25944;BME280;13742;49.306;8.636;2023-03-11T01:01:13;99558.11;;;3.10;61.76
25944;BME280;13742;49.306;8.636;2023-03-11T01:02:11;99573.92;;;3.03;61.77
25944;BME280;13742;49.306;8.636;2023-03-11T01:03:11;99575.96;;;3.03;61.98
25944;BME280;13742;49.306;8.636;2023-03-11T01:04:11;99561.83;;;3.03;61.57
25944;BME280;13742;49.306;8.636;2023-03-11T01:05:12;99566.97;;;3.04;61.65
25944;BME280;13742;49.306;8.636;2023-03-11T01:06:11;99583.38;;;3.00;61.39
25944;BME280;13742;49.306;8.636;2023-03-11T01:07:11;99589.14;;;3.01;61.77
25944;BME280;13742;49.306;8.636;2023-03-11T01:08:11;99574.83;;;3.01;61.63
25944;BME280;13742;49.306;8.636;2023-03-11T01:09:11;99568.63;;;3.01;61.36
25944;BME280;13742;49.306;8.636;2023-03-11T01:10:11;99584.22;;;2.96;60.90
25944;BME280;13742;49.306;8.636;2023-03-11T01:11:11;99595.93;;;2.93;61.20
25944;BME280;13742;49.306;8.636;2023-03-11T01:12:11;99589.52;;;2.96;61.29
25944;BME280;13742;49.306;8.636;2023-03-11T01:13:11;99584.13;;;2.94;61.26
25944;BME280;13742;49.306;8.636;2023-03-11T01:14:11;99593.80;;;2.91;61.02
25944;BME280;13742;49.306;8.636;2023-03-11T01:16:11;99592.28;;;2.90;61.18
25944;BME280;13742;49.306;8.636;2023-03-11T01:17:11;99582.50;;;2.90;61.16
25944;BME280;13742;49.306;8.636;2023-03-11T01:18:13;99594.34;;;2.86;60.89
25944;BME280;13742;49.306;8.636;2023-03-11T01:19:11;99592.47;;;2.88;61.02
25944;BME280;13742;49.306;8.636;2023-03-11T01:20:11;99583.92;;;2.89;60.78
25944;BME280;13742;49.306;8.636;2023-03-11T01:21:11;99583.72;;;2.93;60.66
25944;BME280;13742;49.306;8.636;2023-03-11T01:22:11;99591.09;;;2.94;60.57
25944;BME280;13742;49.306;8.636;2023-03-11T01:23:11;99583.32;;;2.94;60.91
25944;BME280;13742;49.306;8.636;2023-03-11T01:24:11;99576.15;;;2.94;60.80
25944;BME280;13742;49.306;8.636;2023-03-11T01:25:12;99586.72;;;2.92;60.74
25944;BME280;13742;49.306;8.636;2023-03-11T01:26:11;99604.27;;;2.92;60.58
25944;BME280;13742;49.306;8.636;2023-03-11T01:27:11;99603.41;;;2.91;60.71
25944;BME280;13742;49.306;8.636;2023-03-11T01:28:11;99609.31;;;2.92;60.81
25944;BME280;13742;49.306;8.636;2023-03-11T01:29:11;99601.04;;;2.89;60.79
25944;BME280;13742;49.306;8.636;2023-03-11T01:30:15;99590.34;;;2.89;61.08
25944;BME280;13742;49.306;8.636;2023-03-11T01:31:11;99592.45;;;2.89;60.97
25944;BME280;13742;49.306;8.636;2023-03-11T01:32:11;99588.83;;;2.85;61.07
25944;BME280;13742;49.306;8.636;2023-03-11T01:33:13;99586.98;;;2.84;61.24
25944;BME280;13742;49.306;8.636;2023-03-11T01:34:11;99580.47;;;2.87;61.50
25944;BME280;13742;49.306;8.636;2023-03-11T01:35:12;99580.04;;;2.85;61.55
25944;BME280;13742;49.306;8.636;2023-03-11T01:36:11;99588.14;;;2.87;61.79
25944;BME280;13742;49.306;8.636;2023-03-11T01:37:11;99580.98;;;2.86;61.61
25944;BME280;13742;49.306;8.636;2023-03-11T01:38:11;99572.41;;;2.89;61.83
25944;BME280;13742;49.306;8.636;2023-03-11T01:39:11;99578.43;;;2.89;61.70
25944;BME280;13742;49.306;8.636;2023-03-11T01:41:11;99572.70;;;2.85;61.94
25944;BME280;13742;49.306;8.636;2023-03-11T01:42:11;99574.75;;;2.78;62.00
25944;BME280;13742;49.306;8.636;2023-03-11T01:44:11;99575.64;;;2.85;62.41
25944;BME280;13742;49.306;8.636;2023-03-11T01:46:32;99569.48;;;2.77;62.41
25944;BME280;13742;49.306;8.636;2023-03-11T01:47:28;99573.89;;;2.77;62.49
25944;BME280;13742;49.306;8.636;2023-03-11T01:48:11;99583.22;;;2.77;62.54
25944;BME280;13742;49.306;8.636;2023-03-11T01:49:11;99584.31;;;2.74;62.52
25944;BME280;13742;49.306;8.636;2023-03-11T01:50:11;99583.88;;;2.72;62.93
25944;BME280;13742;49.306;8.636;2023-03-11T01:51:11;99590.28;;;2.73;62.84
25944;BME280;13742;49.306;8.636;2023-03-11T01:52:11;99589.77;;;2.73;63.01
25944;BME280;13742;49.306;8.636;2023-03-11T01:53:12;99588.23;;;2.73;63.50
25944;BME280;13742;49.306;8.636;2023-03-11T01:54:18;99595.23;;;2.70;63.29
25944;BME280;13742;49.306;8.636;2023-03-11T01:55:11;99602.95;;;2.70;63.41
25944;BME280;13742;49.306;8.636;2023-03-11T01:56:11;99598.20;;;2.71;63.66
25944;BME280;13742;49.306;8.636;2023-03-11T01:57:12;99598.11;;;2.69;63.56
25944;BME280;13742;49.306;8.636;2023-03-11T01:58:13;99593.75;;;2.66;63.72
25944;BME280;13742;49.306;8.636;2023-03-11T01:59:13;99591.26;;;2.62;63.81
25944;BME280;13742;49.306;8.636;2023-03-11T02:00:12;99597.14;;;2.64;64.00
25944;BME280;13742;49.306;8.636;2023-03-11T02:01:11;99610.19;;;2.64;63.92
25944;BME280;13742;49.306;8.636;2023-03-11T02:04:11;99613.28;;;2.68;63.94
25944;BME280;13742;49.306;8.636;2023-03-11T02:05:11;99625.97;;;2.66;64.22
25944;BME280;13742;49.306;8.636;2023-03-11T02:06:13;99632.03;;;2.64;63.82
25944;BME280;13742;49.306;8.636;2023-03-11T02:07:11;99630.86;;;2.62;63.47
25944;BME280;13742;49.306;8.636;2023-03-11T02:08:11;99637.28;;;2.60;63.61
25944;BME280;13742;49.306;8.636;2023-03-11T02:09:11;99633.73;;;2.57;63.75
25944;BME280;13742;49.306;8.636;2023-03-11T02:10:12;99635.11;;;2.57;63.88
25944;BME280;13742;49.306;8.636;2023-03-11T02:11:13;99636.23;;;2.56;63.62
25944;BME280;13742;49.306;8.636;2023-03-11T02:12:12;99639.79;;;2.55;63.74
25944;BME280;13742;49.306;8.636;2023-03-11T02:13:11;99640.91;;;2.56;63.81
25944;BME280;13742;49.306;8.636;2023-03-11T02:14:11;99637.70;;;2.56;63.83
25944;BME280;13742;49.306;8.636;2023-03-11T02:15:11;99636.97;;;2.59;63.95
25944;BME280;13742;49.306;8.636;2023-03-11T02:16:12;99629.27;;;2.54;63.72
25944;BME280;13742;49.306;8.636;2023-03-11T02:17:11;99627.59;;;2.55;63.88
25944;BME280;13742;49.306;8.636;2023-03-11T02:18:11;99626.66;;;2.54;63.91
25944;BME280;13742;49.306;8.636;2023-03-11T02:19:17;99622.03;;;2.45;64.00
25944;BME280;13742;49.306;8.636;2023-03-11T02:22:11;99633.63;;;2.49;63.81
25944;BME280;13742;49.306;8.636;2023-03-11T02:23:14;99634.52;;;2.48;63.80
25944;BME280;13742;49.306;8.636;2023-03-11T02:24:15;99633.88;;;2.51;63.76
25944;BME280;13742;49.306;8.636;2023-03-11T02:26:15;99622.89;;;2.47;63.86
25944;BME280;13742;49.306;8.636;2023-03-11T02:27:11;99617.81;;;2.45;63.82
25944;BME280;13742;49.306;8.636;2023-03-11T02:28:11;99614.08;;;2.44;63.79
25944;BME280;13742;49.306;8.636;2023-03-11T02:29:11;99613.52;;;2.42;63.95
25944;BME280;13742;49.306;8.636;2023-03-11T02:30:11;99609.91;;;2.43;63.70
25944;BME280;13742;49.306;8.636;2023-03-11T02:31:11;99608.63;;;2.41;63.77
25944;BME280;13742;49.306;8.636;2023-03-11T02:32:11;99609.27;;;2.41;63.85
25944;BME280;13742;49.306;8.636;2023-03-11T02:33:11;99611.55;;;2.41;63.82
25944;BME280;13742;49.306;8.636;2023-03-11T02:34:15;99607.65;;;2.41;63.87
25944;BME280;13742;49.306;8.636;2023-03-11T02:35:11;99604.16;;;2.38;63.61
25944;BME280;13742;49.306;8.636;2023-03-11T02:37:13;99607.45;;;2.39;63.72
25944;BME280;13742;49.306;8.636;2023-03-11T02:38:13;99608.45;;;2.33;63.71
25944;BME280;13742;49.306;8.636;2023-03-11T02:39:11;99605.00;;;2.31;63.94
25944;BME280;13742;49.306;8.636;2023-03-11T02:41:11;99602.50;;;2.31;63.89
25944;BME280;13742;49.306;8.636;2023-03-11T02:42:16;99609.80;;;2.33;63.99
25944;BME280;13742;49.306;8.636;2023-03-11T02:43:12;99605.64;;;2.31;63.95
25944;BME280;13742;49.306;8.636;2023-03-11T02:44:12;99606.05;;;2.29;63.93
25944;BME280;13742;49.306;8.636;2023-03-11T02:45:12;99604.69;;;2.30;63.84
25944;BME280;13742;49.306;8.636;2023-03-11T02:46:11;99604.75;;;2.33;64.07
25944;BME280;13742;49.306;8.636;2023-03-11T02:47:11;99602.91;;;2.29;63.75
25944;BME280;13742;49.306;8.636;2023-03-11T02:48:11;99611.88;;;2.27;63.88
25944;BME280;13742;49.306;8.636;2023-03-11T02:49:11;99612.27;;;2.28;63.84
25944;BME280;13742;49.306;8.636;2023-03-11T02:50:12;99614.21;;;2.27;63.72
25944;BME280;13742;49.306;8.636;2023-03-11T02:51:11;99613.09;;;2.28;63.69
25944;BME280;13742;49.306;8.636;2023-03-11T02:52:11;99614.54;;;2.28;63.77
25944;BME280;13742;49.306;8.636;2023-03-11T02:53:11;99611.66;;;2.32;63.78
25944;BME280;13742;49.306;8.636;2023-03-11T02:54:11;99616.80;;;2.31;63.65
25944;BME280;13742;49.306;8.636;2023-03-11T02:55:11;99617.84;;;2.33;63.81
25944;BME280;13742;49.306;8.636;2023-03-11T02:56:11;99623.25;;;2.30;63.73
25944;BME280;13742;49.306;8.636;2023-03-11T02:57:11;99622.91;;;2.27;63.87
25944;BME280;13742;49.306;8.636;2023-03-11T02:58:11;99620.59;;;2.29;63.96
25944;BME280;13742;49.306;8.636;2023-03-11T02:59:11;99619.99;;;2.30;64.15
25944;BME280;13742;49.306;8.636;2023-03-11T03:00:14;99621.80;;;2.29;63.77
25944;BME280;13742;49.306;8.636;2023-03-11T03:01:11;99624.61;;;2.30;63.83
25944;BME280;13742;49.306;8.636;2023-03-11T03:02:11;99624.59;;;2.29;63.77
25944;BME280;13742;49.306;8.636;2023-03-11T03:03:11;99626.98;;;2.27;63.90
25944;BME280;13742;49.306;8.636;2023-03-11T03:04:11;99629.97;;;2.26;63.75
25944;BME280;13742;49.306;8.636;2023-03-11T03:05:11;99631.88;;;2.25;63.86
25944;BME280;13742;49.306;8.636;2023-03-11T03:06:11;99629.73;;;2.23;63.88
25944;BME280;13742;49.306;8.636;2023-03-11T03:07:11;99627.59;;;2.20;64.10
25944;BME280;13742;49.306;8.636;2023-03-11T03:08:11;99631.03;;;2.18;64.14
25944;BME280;13742;49.306;8.636;2023-03-11T03:09:11;99629.84;;;2.20;64.29
25944;BME280;13742;49.306;8.636;2023-03-11T03:10:11;99636.47;;;2.19;64.25
25944;BME280;13742;49.306;8.636;2023-03-11T03:11:11;99632.70;;;2.19;64.34
25944;BME280;13742;49.306;8.636;2023-03-11T03:12:11;99631.48;;;2.16;64.54
25944;BME280;13742;49.306;8.636;2023-03-11T03:13:11;99629.98;;;2.16;64.42
25944;BME280;13742;49.306;8.636;2023-03-11T03:14:11;99630.77;;;2.14;64.49
25944;BME280;13742;49.306;8.636;2023-03-11T03:15:11;99634.05;;;2.16;64.63
25944;BME280;13742;49.306;8.636;2023-03-11T03:16:11;99632.95;;;2.16;64.61
25944;BME280;13742;49.306;8.636;2023-03-11T03:17:11;99634.70;;;2.16;64.50
25944;BME280;13742;49.306;8.636;2023-03-11T03:18:11;99633.82;;;2.12;64.60
25944;BME280;13742;49.306;8.636;2023-03-11T03:19:11;99631.86;;;2.12;64.57
25944;BME280;13742;49.306;8.636;2023-03-11T03:20:13;99630.10;;;2.10;64.77
25944;BME280;13742;49.306;8.636;2023-03-11T03:21:11;99632.65;;;2.11;64.88
25944;BME280;13742;49.306;8.636;2023-03-11T03:22:11;99633.16;;;2.13;64.87
25944;BME280;13742;49.306;8.636;2023-03-11T03:23:11;99636.03;;;2.13;64.80
25944;BME280;13742;49.306;8.636;2023-03-11T03:24:11;99638.42;;;2.12;64.90
25944;BME280;13742;49.306;8.636;2023-03-11T03:25:11;99637.70;;;2.08;64.68
25944;BME280;13742;49.306;8.636;2023-03-11T03:26:12;99639.67;;;2.07;64.79
25944;BME280;13742;49.306;8.636;2023-03-11T03:27:11;99644.70;;;2.06;64.88
25944;BME280;13742;49.306;8.636;2023-03-11T03:28:11;99640.40;;;2.05;64.92
25944;BME280;13742;49.306;8.636;2023-03-11T03:29:11;99641.96;;;2.03;65.18
25944;BME280;13742;49.306;8.636;2023-03-11T03:30:11;99646.28;;;2.04;65.18
25944;BME280;13742;49.306;8.636;2023-03-11T03:31:11;99646.30;;;2.04;64.90
25944;BME280;13742;49.306;8.636;2023-03-11T03:32:11;99649.22;;;2.04;65.03
25944;BME280;13742;49.306;8.636;2023-03-11T03:33:11;99650.80;;;1.99;65.11
25944;BME280;13742;49.306;8.636;2023-03-11T03:34:11;99649.36;;;1.99;65.09
25944;BME280;13742;49.306;8.636;2023-03-11T03:35:11;99651.89;;;2.01;65.06
25944;BME280;13742;49.306;8.636;2023-03-11T03:36:12;99652.77;;;2.00;65.18
25944;BME280;13742;49.306;8.636;2023-03-11T03:37:11;99656.70;;;2.03;64.95
25944;BME280;13742;49.306;8.636;2023-03-11T03:38:11;99655.59;;;2.01;65.09
25944;BME280;13742;49.306;8.636;2023-03-11T03:39:11;99653.87;;;2.00;65.05
25944;BME280;13742;49.306;8.636;2023-03-11T03:40:11;99661.20;;;1.97;64.97
25944;BME280;13742;49.306;8.636;2023-03-11T03:41:14;99664.92;;;1.95;65.17
25944;BME280;13742;49.306;8.636;2023-03-11T03:42:11;99668.23;;;1.94;65.14
25944;BME280;13742;49.306;8.636;2023-03-11T03:43:11;99667.97;;;1.95;65.32
25944;BME280;13742;49.306;8.636;2023-03-11T03:44:11;99669.22;;;1.94;65.14
25944;BME280;13742;49.306;8.636;2023-03-11T03:45:11;99671.19;;;1.97;65.41
25944;BME280;13742;49.306;8.636;2023-03-11T03:46:11;99667.38;;;1.98;65.51
25944;BME280;13742;49.306;8.636;2023-03-11T03:47:11;99671.52;;;1.97;65.49
25944;BME280;13742;49.306;8.636;2023-03-11T03:48:11;99673.09;;;1.95;65.36
25944;BME280;13742;49.306;8.636;2023-03-11T03:49:11;99665.69;;;1.95;65.21
25944;BME280;13742;49.306;8.636;2023-03-11T03:50:11;99666.81;;;1.94;65.22
25944;BME280;13742;49.306;8.636;2023-03-11T03:51:11;99664.64;;;1.91;65.36
25944;BME280;13742;49.306;8.636;2023-03-11T03:52:11;99663.14;;;1.92;65.48
25944;BME280;13742;49.306;8.636;2023-03-11T03:53:11;99661.58;;;1.91;65.51
25944;BME280;13742;49.306;8.636;2023-03-11T03:54:11;99662.20;;;1.91;65.36
25944;BME280;13742;49.306;8.636;2023-03-11T03:55:11;99663.98;;;1.89;65.45
25944;BME280;13742;49.306;8.636;2023-03-11T03:56:12;99660.32;;;1.88;65.54
25944;BME280;13742;49.306;8.636;2023-03-11T03:57:11;99665.43;;;1.88;65.59
25944;BME280;13742;49.306;8.636;2023-03-11T03:58:11;99665.73;;;1.90;65.64
25944;BME280;13742;49.306;8.636;2023-03-11T03:59:11;99670.11;;;1.86;65.49
25944;BME280;13742;49.306;8.636;2023-03-11T04:00:11;99668.63;;;1.87;65.54
25944;BME280;13742;49.306;8.636;2023-03-11T04:01:12;99668.80;;;1.85;65.60
25944;BME280;13742;49.306;8.636;2023-03-11T04:02:11;99672.11;;;1.84;65.58
25944;BME280;13742;49.306;8.636;2023-03-11T04:03:11;99675.95;;;1.87;65.76
25944;BME280;13742;49.306;8.636;2023-03-11T04:04:11;99676.97;;;1.91;66.11
25944;BME280;13742;49.306;8.636;2023-03-11T04:05:11;99676.70;;;1.92;65.88
25944;BME280;13742;49.306;8.636;2023-03-11T04:07:11;99677.35;;;1.90;65.70
25944;BME280;13742;49.306;8.636;2023-03-11T04:08:11;99682.24;;;1.88;65.77
25944;BME280;13742;49.306;8.636;2023-03-11T04:09:11;99680.47;;;1.91;65.84
25944;BME280;13742;49.306;8.636;2023-03-11T04:10:12;99680.98;;;1.93;65.94
25944;BME280;13742;49.306;8.636;2023-03-11T04:11:11;99683.48;;;1.89;65.83
25944;BME280;13742;49.306;8.636;2023-03-11T04:12:14;99686.09;;;1.87;65.86
25944;BME280;13742;49.306;8.636;2023-03-11T04:13:11;99686.10;;;1.88;65.80
25944;BME280;13742;49.306;8.636;2023-03-11T04:14:11;99686.81;;;1.86;65.84
25944;BME280;13742;49.306;8.636;2023-03-11T04:15:11;99683.94;;;1.85;65.85
25944;BME280;13742;49.306;8.636;2023-03-11T04:16:13;99682.52;;;1.84;65.87
25944;BME280;13742;49.306;8.636;2023-03-11T04:17:12;99686.53;;;1.80;66.01
25944;BME280;13742;49.306;8.636;2023-03-11T04:18:11;99690.65;;;1.81;66.10
25944;BME280;13742;49.306;8.636;2023-03-11T04:19:11;99694.47;;;1.85;66.16
25944;BME280;13742;49.306;8.636;2023-03-11T04:20:11;99695.32;;;1.85;65.92
25944;BME280;13742;49.306;8.636;2023-03-11T04:21:11;99695.45;;;1.85;66.24
25944;BME280;13742;49.306;8.636;2023-03-11T04:22:11;99695.77;;;1.85;66.15
25944;BME280;13742;49.306;8.636;2023-03-11T04:23:11;99693.16;;;1.83;66.08
25944;BME280;13742;49.306;8.636;2023-03-11T04:24:11;99696.61;;;1.82;66.23
25944;BME280;13742;49.306;8.636;2023-03-11T04:25:11;99696.02;;;1.83;66.32
25944;BME280;13742;49.306;8.636;2023-03-11T04:26:11;99692.05;;;1.88;66.54
25944;BME280;13742;49.306;8.636;2023-03-11T04:27:11;99693.48;;;1.86;66.18
25944;BME280;13742;49.306;8.636;2023-03-11T04:28:11;99696.60;;;1.84;66.12
25944;BME280;13742;49.306;8.636;2023-03-11T04:29:11;99701.14;;;1.87;66.45
25944;BME280;13742;49.306;8.636;2023-03-11T04:30:11;99699.16;;;1.81;66.15
25944;BME280;13742;49.306;8.636;2023-03-11T04:31:11;99698.34;;;1.81;66.31
25944;BME280;13742;49.306;8.636;2023-03-11T04:32:11;99700.28;;;1.79;66.39
25944;BME280;13742;49.306;8.636;2023-03-11T04:33:11;99701.38;;;1.82;66.39
25944;BME280;13742;49.306;8.636;2023-03-11T04:34:11;99701.66;;;1.80;66.37
25944;BME280;13742;49.306;8.636;2023-03-11T04:35:11;99697.77;;;1.81;66.43
25944;BME280;13742;49.306;8.636;2023-03-11T04:36:11;99696.27;;;1.83;66.40
25944;BME280;13742;49.306;8.636;2023-03-11T04:37:11;99694.30;;;1.83;66.37
25944;BME280;13742;49.306;8.636;2023-03-11T04:38:11;99695.41;;;1.83;66.32
25944;BME280;13742;49.306;8.636;2023-03-11T04:39:11;99697.23;;;1.81;66.50
25944;BME280;13742;49.306;8.636;2023-03-11T04:40:11;99697.39;;;1.83;66.36
25944;BME280;13742;49.306;8.636;2023-03-11T04:41:11;99700.87;;;1.85;66.39
25944;BME280;13742;49.306;8.636;2023-03-11T04:42:12;99702.84;;;1.82;66.36
25944;BME280;13742;49.306;8.636;2023-03-11T04:43:11;99704.98;;;1.82;66.20
25944;BME280;13742;49.306;8.636;2023-03-11T04:44:11;99702.53;;;1.81;66.40
25944;BME280;13742;49.306;8.636;2023-03-11T04:45:12;99704.53;;;1.76;66.43
25944;BME280;13742;49.306;8.636;2023-03-11T04:46:11;99703.36;;;1.78;66.39
25944;BME280;13742;49.306;8.636;2023-03-11T04:47:11;99702.73;;;1.77;66.37
25944;BME280;13742;49.306;8.636;2023-03-11T04:48:11;99702.85;;;1.75;66.30
25944;BME280;13742;49.306;8.636;2023-03-11T04:49:11;99703.02;;;1.74;66.41
25944;BME280;13742;49.306;8.636;2023-03-11T04:50:11;99701.43;;;1.75;66.54
25944;BME280;13742;49.306;8.636;2023-03-11T04:51:11;99700.70;;;1.75;66.62
25944;BME280;13742;49.306;8.636;2023-03-11T04:52:11;99702.61;;;1.77;66.67
25944;BME280;13742;49.306;8.636;2023-03-11T04:53:11;99702.01;;;1.77;66.81
25944;BME280;13742;49.306;8.636;2023-03-11T04:54:11;99699.71;;;1.75;66.63
25944;BME280;13742;49.306;8.636;2023-03-11T04:55:13;99701.38;;;1.76;66.80
25944;BME280;13742;49.306;8.636;2023-03-11T04:56:11;99701.75;;;1.77;66.78
25944;BME280;13742;49.306;8.636;2023-03-11T04:57:11;99704.08;;;1.73;66.75
25944;BME280;13742;49.306;8.636;2023-03-11T04:58:11;99710.24;;;1.72;66.64
25944;BME280;13742;49.306;8.636;2023-03-11T04:59:11;99709.50;;;1.70;66.70
25944;BME280;13742;49.306;8.636;2023-03-11T05:00:11;99710.32;;;1.72;66.96
25944;BME280;13742;49.306;8.636;2023-03-11T05:01:11;99710.95;;;1.71;66.91
25944;BME280;13742;49.306;8.636;2023-03-11T05:02:11;99714.25;;;1.73;67.04
25944;BME280;13742;49.306;8.636;2023-03-11T05:03:11;99711.67;;;1.77;67.14
25944;BME280;13742;49.306;8.636;2023-03-11T05:04:11;99713.61;;;1.78;66.92
25944;BME280;13742;49.306;8.636;2023-03-11T05:05:11;99710.90;;;1.78;66.88
25944;BME280;13742;49.306;8.636;2023-03-11T05:06:11;99714.74;;;1.74;67.09
25944;BME280;13742;49.306;8.636;2023-03-11T05:07:11;99719.30;;;1.72;66.89
25944;BME280;13742;49.306;8.636;2023-03-11T05:08:11;99721.82;;;1.70;66.92
25944;BME280;13742;49.306;8.636;2023-03-11T05:09:11;99721.51;;;1.70;66.91
25944;BME280;13742;49.306;8.636;2023-03-11T05:10:11;99724.48;;;1.72;67.05
25944;BME280;13742;49.306;8.636;2023-03-11T05:11:11;99724.30;;;1.70;67.13
25944;BME280;13742;49.306;8.636;2023-03-11T05:12:11;99724.50;;;1.73;67.31
25944;BME280;13742;49.306;8.636;2023-03-11T05:13:11;99724.81;;;1.77;67.27
25944;BME280;13742;49.306;8.636;2023-03-11T05:14:11;99726.42;;;1.77;67.02
25944;BME280;13742;49.306;8.636;2023-03-11T05:15:11;99729.05;;;1.73;67.00
25944;BME280;13742;49.306;8.636;2023-03-11T05:16:11;99732.67;;;1.75;67.12
25944;BME280;13742;49.306;8.636;2023-03-11T05:17:12;99728.92;;;1.71;66.98
25944;BME280;13742;49.306;8.636;2023-03-11T05:18:11;99730.77;;;1.70;66.93
25944;BME280;13742;49.306;8.636;2023-03-11T05:19:16;99734.30;;;1.68;67.07
25944;BME280;13742;49.306;8.636;2023-03-11T05:20:11;99731.19;;;1.70;67.31
25944;BME280;13742;49.306;8.636;2023-03-11T05:21:11;99730.09;;;1.72;67.26
25944;BME280;13742;49.306;8.636;2023-03-11T05:22:11;99726.95;;;1.74;67.28
25944;BME280;13742;49.306;8.636;2023-03-11T05:23:11;99727.61;;;1.72;67.22
25944;BME280;13742;49.306;8.636;2023-03-11T05:24:11;99728.91;;;1.74;67.22
25944;BME280;13742;49.306;8.636;2023-03-11T05:25:11;99733.64;;;1.71;67.18
25944;BME280;13742;49.306;8.636;2023-03-11T05:26:11;99730.75;;;1.73;67.40
25944;BME280;13742;49.306;8.636;2023-03-11T05:27:11;99730.83;;;1.76;67.46
25944;BME280;13742;49.306;8.636;2023-03-11T05:28:11;99733.13;;;1.66;67.66
25944;BME280;13742;49.306;8.636;2023-03-11T05:29:11;99728.38;;;1.68;67.27
25944;BME280;13742;49.306;8.636;2023-03-11T05:30:11;99729.21;;;1.69;67.62
25944;BME280;13742;49.306;8.636;2023-03-11T05:31:11;99731.72;;;1.72;67.66
25944;BME280;13742;49.306;8.636;2023-03-11T05:32:12;99731.83;;;1.72;67.62
25944;BME280;13742;49.306;8.636;2023-03-11T05:33:11;99734.16;;;1.74;67.67
25944;BME280;13742;49.306;8.636;2023-03-11T05:34:11;99737.59;;;1.73;67.24